createdAt,value
2022-08-12T00:01:10.359Z,18.02
2022-08-12T00:03:56.028Z,17.97
2022-08-12T00:06:43.926Z,17.81
2022-08-12T00:09:29.675Z,17.83
2022-08-12T00:12:15.459Z,17.90
2022-08-12T00:15:02.415Z,17.82
2022-08-12T00:17:48.249Z,17.71
2022-08-12T00:20:33.634Z,17.60
2022-08-12T00:23:20.756Z,17.69
2022-08-12T00:26:23.597Z,17.62
2022-08-12T00:29:11.663Z,17.70
2022-08-12T00:31:58.064Z,17.56
2022-08-12T00:34:45.880Z,17.54
2022-08-12T00:37:34.418Z,17.46
2022-08-12T00:40:22.519Z,17.37
2022-08-12T00:42:49.549Z,17.40
2022-08-12T00:45:17.678Z,17.28
2022-08-12T00:47:45.996Z,17.21
2022-08-12T00:50:19.398Z,17.16
2022-08-12T00:52:49.061Z,17.25
2022-08-12T00:55:20.010Z,17.16
2022-08-12T00:57:50.013Z,17.15
2022-08-12T01:00:21.465Z,17.18
2022-08-12T01:02:52.611Z,16.99
2022-08-12T01:05:40.462Z,17.07
2022-08-12T01:08:27.426Z,16.98
2022-08-12T01:11:16.090Z,17.04
2022-08-12T01:13:50.950Z,16.98
2022-08-12T01:16:23.154Z,17.03
2022-08-12T01:18:56.208Z,16.91
2022-08-12T01:21:46.689Z,16.97
2022-08-12T01:24:38.195Z,16.94
2022-08-12T01:27:10.903Z,16.95
2022-08-12T01:29:44.347Z,16.94
2022-08-12T01:32:14.428Z,16.87
2022-08-12T01:34:50.489Z,16.89
2022-08-12T01:37:30.439Z,16.78
2022-08-12T01:40:35.558Z,16.62
2022-08-12T01:42:52.120Z,16.70
2022-08-12T01:45:24.611Z,16.63
2022-08-12T01:48:06.262Z,16.70
2022-08-12T01:50:51.213Z,16.76
2022-08-12T01:53:21.041Z,16.88
2022-08-12T01:55:51.768Z,16.81
2022-08-12T01:58:28.829Z,16.66
2022-08-12T02:01:01.362Z,16.56
2022-08-12T02:04:05.566Z,16.72
2022-08-12T02:07:00.874Z,16.52
2022-08-12T02:10:05.715Z,16.30
2022-08-12T02:12:49.660Z,16.11
2022-08-12T02:15:24.990Z,16.17
2022-08-12T02:18:12.319Z,16.06
2022-08-12T02:20:52.390Z,15.96
2022-08-12T02:23:27.125Z,15.85
2022-08-12T02:26:00.475Z,15.83
2022-08-12T02:28:30.615Z,16.09
2022-08-12T02:31:04.890Z,15.91
2022-08-12T02:33:34.099Z,15.80
2022-08-12T02:36:03.691Z,15.91
2022-08-12T02:38:32.212Z,15.91
2022-08-12T02:41:03.555Z,15.79
2022-08-12T02:43:38.816Z,15.68
2022-08-12T02:46:14.821Z,15.89
2022-08-12T02:48:49.139Z,15.80
2022-08-12T02:51:21.428Z,15.83
2022-08-12T02:54:04.549Z,15.76
2022-08-12T02:56:33.994Z,15.84
2022-08-12T02:59:03.415Z,15.65
2022-08-12T03:01:34.288Z,15.69
2022-08-12T03:04:05.398Z,15.63
2022-08-12T03:06:39.071Z,15.66
2022-08-12T03:09:16.502Z,15.53
2022-08-12T03:11:51.318Z,15.59
2022-08-12T03:14:26.845Z,15.52
2022-08-12T03:17:11.388Z,15.39
2022-08-12T03:20:10.488Z,15.43
2022-08-12T03:22:28.097Z,15.44
2022-08-12T03:25:01.952Z,15.33
2022-08-12T03:27:31.886Z,15.49
2022-08-12T03:30:01.515Z,15.49
2022-08-12T03:32:36.221Z,15.21
2022-08-12T03:35:07.887Z,15.07
2022-08-12T03:37:38.436Z,15.28
2022-08-12T03:40:11.505Z,15.18
2022-08-12T03:43:04.974Z,15.22
2022-08-12T03:45:54.247Z,15.16
2022-08-12T03:48:43.792Z,15.00
2022-08-12T03:51:29.955Z,14.86
2022-08-12T03:54:15.973Z,14.95
2022-08-12T03:57:01.497Z,14.74
2022-08-12T03:59:49.889Z,14.66
2022-08-12T04:02:19.231Z,14.57
2022-08-12T04:04:47.352Z,14.66
2022-08-12T04:07:18.150Z,14.55
2022-08-12T04:09:48.019Z,14.62
2022-08-12T04:12:40.237Z,14.70
2022-08-12T04:15:20.083Z,14.78
2022-08-12T04:18:07.584Z,14.69
2022-08-12T04:20:37.358Z,14.58
2022-08-12T04:23:08.486Z,14.66
2022-08-12T04:25:39.429Z,14.61
2022-08-12T04:28:13.269Z,14.75
2022-08-12T04:30:41.923Z,14.63
2022-08-12T04:33:12.561Z,14.67
2022-08-12T04:35:40.768Z,14.57
2022-08-12T04:38:08.978Z,14.57
2022-08-12T04:40:37.538Z,14.44
2022-08-12T04:43:07.040Z,14.63
2022-08-12T04:45:56.458Z,14.72
2022-08-12T04:48:25.822Z,14.70
2022-08-12T04:50:53.883Z,14.63
2022-08-12T04:53:21.997Z,14.82
2022-08-12T04:55:53.635Z,14.76
2022-08-12T04:58:29.383Z,14.94
2022-08-12T05:00:58.344Z,15.13
2022-08-12T05:03:28.657Z,15.21
2022-08-12T05:06:26.247Z,15.44
2022-08-12T05:08:59.866Z,15.48
2022-08-12T05:11:28.730Z,15.66
2022-08-12T05:13:59.830Z,15.79
2022-08-12T05:16:32.556Z,16.00
2022-08-12T05:19:18.462Z,16.29
2022-08-12T05:21:50.680Z,16.52
2022-08-12T05:24:18.605Z,16.40
2022-08-12T05:26:47.266Z,16.69
2022-08-12T05:30:08.355Z,17.02
2022-08-12T05:32:06.312Z,16.94
2022-08-12T05:34:35.565Z,16.95
2022-08-12T05:37:04.033Z,17.29
2022-08-12T05:39:32.005Z,17.38
2022-08-12T05:42:00.137Z,17.51
2022-08-12T05:44:28.225Z,17.52
2022-08-12T05:46:58.748Z,17.52
2022-08-12T05:49:29.657Z,17.53
2022-08-12T05:51:59.009Z,17.71
2022-08-12T05:54:47.666Z,17.76
2022-08-12T05:57:15.534Z,17.92
2022-08-12T05:59:43.543Z,18.01
2022-08-12T06:02:13.544Z,18.21
2022-08-12T06:04:42.041Z,18.35
2022-08-12T06:07:59.848Z,18.82
2022-08-12T06:10:00.931Z,19.54
2022-08-12T06:12:29.042Z,20.35
2022-08-12T06:14:57.056Z,20.75
2022-08-12T06:17:25.493Z,21.18
2022-08-12T06:20:29.542Z,21.41
2022-08-12T06:22:43.317Z,21.78
2022-08-12T06:25:17.618Z,22.13
2022-08-12T06:28:05.856Z,22.38
2022-08-12T06:30:39.349Z,23.32
2022-08-12T06:33:22.108Z,23.64
2022-08-12T06:35:52.321Z,22.93
2022-08-12T06:38:28.304Z,23.40
2022-08-12T06:41:15.001Z,23.35
2022-08-12T06:44:05.556Z,23.84
2022-08-12T06:46:32.504Z,24.30
2022-08-12T06:49:00.933Z,23.89
2022-08-12T06:51:32.554Z,24.92
2022-08-12T06:54:18.705Z,24.46
2022-08-12T06:57:57.019Z,24.74
2022-08-12T06:59:52.302Z,23.62
2022-08-12T07:02:22.939Z,24.55
2022-08-12T07:04:52.684Z,24.66
2022-08-12T07:07:21.367Z,25.86
2022-08-12T07:10:05.527Z,24.98
2022-08-12T07:12:37.545Z,25.43
2022-08-12T07:15:06.572Z,25.99
2022-08-12T07:17:38.859Z,25.62
2022-08-12T07:20:29.516Z,25.58
2022-08-12T07:23:01.773Z,25.24
2022-08-12T07:25:40.402Z,25.63
2022-08-12T07:28:16.381Z,25.94
2022-08-12T07:30:46.563Z,25.57
2022-08-12T07:33:18.691Z,25.59
2022-08-12T07:35:48.394Z,25.53
2022-08-12T07:38:30.705Z,25.84
2022-08-12T07:41:04.204Z,26.32
2022-08-12T07:43:39.114Z,26.62
2022-08-12T07:46:09.600Z,27.71
2022-08-12T07:48:40.712Z,27.39
2022-08-12T07:51:12.004Z,28.27
2022-08-12T07:54:00.979Z,28.24
2022-08-12T07:56:33.127Z,28.24
2022-08-12T07:59:03.193Z,28.59
2022-08-12T08:01:32.855Z,28.83
2022-08-12T08:04:19.797Z,28.49
2022-08-12T08:06:49.266Z,27.37
2022-08-12T08:09:21.323Z,28.27
2022-08-12T08:12:09.353Z,28.48
2022-08-12T08:14:50.975Z,28.55
2022-08-12T08:17:19.163Z,29.77
2022-08-12T08:20:02.694Z,29.57
2022-08-12T08:22:40.765Z,30.04
2022-08-12T08:25:34.589Z,30.12
2022-08-12T08:28:03.051Z,30.98
2022-08-12T08:30:36.754Z,30.52
2022-08-12T08:33:23.096Z,30.76
2022-08-12T08:35:59.085Z,30.28
2022-08-12T08:42:15.318Z,29.72
2022-08-12T08:44:16.780Z,30.73
2022-08-12T08:47:05.490Z,29.89
2022-08-12T08:49:37.939Z,31.09
2022-08-12T08:52:39.075Z,30.77
2022-08-12T08:55:14.004Z,30.80
2022-08-12T08:57:44.695Z,31.64
2022-08-12T09:00:19.448Z,32.81
2022-08-12T09:02:58.647Z,31.74
2022-08-12T09:05:28.047Z,32.99
2022-08-12T09:12:07.572Z,32.34
2022-08-12T09:17:06.873Z,32.98
2022-08-12T09:19:35.046Z,33.38
2022-08-12T09:22:03.123Z,32.22
2022-08-12T09:24:32.927Z,31.91
2022-08-12T09:27:03.442Z,32.66
2022-08-12T09:30:16.034Z,31.73
2022-08-12T09:32:56.635Z,33.45
2022-08-12T09:35:44.613Z,33.09
2022-08-12T09:38:28.027Z,33.68
2022-08-12T09:42:08.370Z,33.75
2022-08-12T09:44:07.161Z,34.02
2022-08-12T09:46:58.064Z,33.08
2022-08-12T09:49:28.579Z,33.74
2022-08-12T09:52:05.098Z,33.53
2022-08-12T09:54:35.406Z,33.26
2022-08-12T09:58:08.270Z,34.44
2022-08-12T10:00:13.994Z,34.34
2022-08-12T10:03:32.681Z,33.63
2022-08-12T10:06:20.138Z,34.22
2022-08-12T10:08:52.634Z,33.00
2022-08-12T10:12:10.590Z,33.78
2022-08-12T10:14:34.372Z,33.34
2022-08-12T10:17:03.086Z,33.08
2022-08-12T10:19:37.956Z,33.95
2022-08-12T10:22:16.838Z,34.41
2022-08-12T10:25:17.189Z,34.69
2022-08-12T10:28:07.097Z,34.71
2022-08-12T10:30:46.857Z,34.42
2022-08-12T10:33:31.960Z,33.36
2022-08-12T10:36:02.135Z,34.07
2022-08-12T10:38:41.109Z,34.10
2022-08-12T10:41:57.442Z,34.77
2022-08-12T10:44:17.789Z,34.70
2022-08-12T10:46:49.385Z,34.65
2022-08-12T10:50:04.912Z,34.47
2022-08-12T10:52:34.270Z,34.99
2022-08-12T10:54:56.627Z,33.93
2022-08-12T10:58:28.308Z,34.11
2022-08-12T11:00:34.376Z,33.38
2022-08-12T11:04:34.236Z,33.79
2022-08-12T11:07:06.339Z,34.12
2022-08-12T11:08:43.246Z,33.85
2022-08-12T11:11:27.743Z,34.52
2022-08-12T11:14:13.158Z,35.32
2022-08-12T11:17:42.880Z,36.50
2022-08-12T11:19:46.332Z,35.31
2022-08-12T11:22:15.759Z,34.53
2022-08-12T11:24:51.176Z,35.68
2022-08-12T11:27:21.274Z,35.61
2022-08-12T11:30:01.667Z,35.87
2022-08-12T11:32:38.503Z,36.22
2022-08-12T11:35:08.389Z,34.90
2022-08-12T11:37:55.873Z,34.83
2022-08-12T11:40:26.606Z,35.72
2022-08-12T11:43:17.200Z,35.07
2022-08-12T11:45:47.708Z,35.07
2022-08-12T11:48:27.013Z,35.59
2022-08-12T11:50:56.294Z,35.26
2022-08-12T11:53:57.811Z,35.62
2022-08-12T11:56:13.227Z,35.64
2022-08-12T12:02:01.678Z,35.44
2022-08-12T12:04:22.634Z,36.44
2022-08-12T12:07:07.141Z,36.50
2022-08-12T12:09:52.954Z,36.95
2022-08-12T12:12:23.000Z,36.01
2022-08-12T12:14:54.896Z,36.02
2022-08-12T12:17:24.673Z,37.26
2022-08-12T12:19:56.012Z,37.85
2022-08-12T12:22:30.759Z,37.35
2022-08-12T12:25:12.578Z,36.24
2022-08-12T12:28:06.330Z,36.70
2022-08-12T12:30:39.077Z,35.87
2022-08-12T12:33:22.773Z,35.26
2022-08-12T12:36:16.724Z,35.39
2022-08-12T12:38:38.662Z,35.85
2022-08-12T12:41:16.916Z,36.39
2022-08-12T12:44:03.803Z,36.88
2022-08-12T12:46:39.991Z,36.48
2022-08-12T12:49:19.462Z,38.23
2022-08-12T12:52:18.356Z,36.46
2022-08-12T12:54:52.695Z,38.35
2022-08-12T12:57:58.846Z,37.25
2022-08-12T13:00:17.779Z,36.22
2022-08-12T13:02:57.914Z,37.67
2022-08-12T13:05:29.004Z,38.42
2022-08-12T13:08:01.215Z,38.33
2022-08-12T13:10:36.876Z,37.82
2022-08-12T13:14:06.528Z,35.61
2022-08-12T13:15:59.227Z,37.91
2022-08-12T13:18:36.405Z,36.34
2022-08-12T13:21:15.893Z,36.97
2022-08-12T13:23:58.225Z,35.65
2022-08-12T13:26:35.257Z,35.06
2022-08-12T13:29:05.441Z,36.55
2022-08-12T13:32:17.597Z,36.33
2022-08-12T13:34:32.947Z,35.82
2022-08-12T13:37:09.188Z,35.96
2022-08-12T13:39:38.308Z,37.48
2022-08-12T13:45:05.863Z,37.94
2022-08-12T13:47:55.754Z,36.35
2022-08-12T13:50:29.932Z,37.63
2022-08-12T13:53:24.322Z,38.61
2022-08-12T13:56:02.174Z,36.52
2022-08-12T13:58:35.070Z,37.06
2022-08-12T14:01:12.864Z,37.16
2022-08-12T14:03:51.214Z,36.05
2022-08-12T14:09:29.467Z,36.39
2022-08-12T14:12:10.217Z,36.01
2022-08-12T14:14:55.575Z,37.73
2022-08-12T14:17:52.197Z,37.92
2022-08-12T14:24:05.797Z,36.38
2022-08-12T14:26:54.542Z,36.49
2022-08-12T14:29:55.782Z,36.86
2022-08-12T14:32:16.709Z,37.24
2022-08-12T14:34:45.528Z,37.33
2022-08-12T14:37:56.266Z,37.01
2022-08-12T14:40:06.816Z,36.83
2022-08-12T14:42:48.406Z,36.91
2022-08-12T14:45:22.841Z,36.29
2022-08-12T14:47:58.550Z,36.52
2022-08-12T14:50:57.318Z,35.58
2022-08-12T14:59:57.589Z,35.57
2022-08-12T15:02:21.732Z,36.17
2022-08-12T15:04:59.173Z,36.16
2022-08-12T15:07:33.550Z,35.55
2022-08-12T15:10:13.373Z,35.29
2022-08-12T15:12:43.358Z,36.88
2022-08-12T15:15:12.254Z,36.74
2022-08-12T15:17:40.640Z,36.15
2022-08-12T15:20:31.456Z,35.39
2022-08-12T15:22:57.913Z,35.65
2022-08-12T15:25:26.186Z,36.56
2022-08-12T15:28:10.985Z,36.70
2022-08-12T15:30:47.607Z,37.06
2022-08-12T15:33:18.933Z,37.19
2022-08-12T15:35:53.718Z,35.71
2022-08-12T15:38:24.995Z,35.38
2022-08-12T15:40:55.050Z,34.48
2022-08-12T15:43:35.457Z,36.32
2022-08-12T15:46:16.210Z,36.19
2022-08-12T15:48:46.660Z,35.83
2022-08-12T15:51:58.240Z,35.27
2022-08-12T15:54:35.041Z,34.87
2022-08-12T15:57:08.294Z,35.17
2022-08-12T15:59:59.909Z,36.33
2022-08-12T16:02:29.374Z,35.49
2022-08-12T16:04:57.761Z,36.48
2022-08-12T16:07:31.238Z,36.97
2022-08-12T16:10:08.317Z,37.17
2022-08-12T16:12:43.319Z,36.73
2022-08-12T16:15:14.756Z,35.49
2022-08-12T16:18:14.960Z,35.74
2022-08-12T16:20:35.171Z,37.19
2022-08-12T16:23:36.524Z,34.78
2022-08-12T16:26:05.190Z,34.76
2022-08-12T16:28:34.513Z,33.53
2022-08-12T16:31:05.680Z,33.38
2022-08-12T16:33:59.233Z,33.32
2022-08-12T16:36:29.853Z,34.16
2022-08-12T16:39:01.675Z,34.58
2022-08-12T16:41:37.846Z,34.26
2022-08-12T16:44:08.297Z,34.73
2022-08-12T16:46:39.882Z,35.24
2022-08-12T16:49:08.659Z,36.01
2022-08-12T16:51:45.648Z,35.49
2022-08-12T16:54:16.571Z,34.98
2022-08-12T16:56:54.785Z,35.36
2022-08-12T16:59:31.100Z,33.84
2022-08-12T17:02:18.019Z,33.83
2022-08-12T17:05:04.559Z,34.45
2022-08-12T17:07:43.537Z,34.43
2022-08-12T17:10:18.370Z,33.91
2022-08-12T17:13:10.047Z,34.09
2022-08-12T17:15:50.312Z,34.52
2022-08-12T17:18:43.743Z,35.02
2022-08-12T17:21:10.080Z,34.10
2022-08-12T17:23:47.902Z,32.93
2022-08-12T17:26:24.742Z,33.10
2022-08-12T17:28:57.705Z,33.46
2022-08-12T17:31:59.525Z,33.84
2022-08-12T17:34:38.500Z,33.81
2022-08-12T17:37:10.602Z,33.56
2022-08-12T17:40:13.645Z,33.05
2022-08-12T17:42:34.932Z,33.66
2022-08-12T17:45:18.011Z,32.79
2022-08-12T17:48:04.828Z,33.24
2022-08-12T17:50:38.112Z,32.93
2022-08-12T17:53:08.074Z,32.50
2022-08-12T17:55:47.309Z,32.08
2022-08-12T17:58:18.202Z,32.24
2022-08-12T18:00:48.987Z,32.28
2022-08-12T18:04:05.390Z,32.16
2022-08-12T18:06:14.060Z,30.98
2022-08-12T18:08:55.101Z,31.34
2022-08-12T18:12:03.125Z,31.11
2022-08-12T18:14:30.829Z,31.50
2022-08-12T18:17:02.646Z,31.49
2022-08-12T18:20:03.651Z,31.05
2022-08-12T18:22:29.099Z,30.58
2022-08-12T18:25:04.020Z,29.38
2022-08-12T18:27:43.874Z,29.00
2022-08-12T18:30:20.545Z,28.59
2022-08-12T18:33:03.838Z,28.14
2022-08-12T18:35:47.617Z,27.91
2022-08-12T18:38:25.015Z,27.56
2022-08-12T18:41:21.209Z,27.38
2022-08-12T18:43:59.966Z,27.07
2022-08-12T18:46:37.441Z,26.82
2022-08-12T18:49:17.929Z,26.56
2022-08-12T18:51:55.199Z,26.34
2022-08-12T18:54:34.132Z,26.10
2022-08-12T18:57:15.526Z,25.91
2022-08-12T19:00:01.516Z,25.51
2022-08-12T19:02:40.468Z,25.35
2022-08-12T19:05:11.836Z,25.18
2022-08-12T19:08:00.378Z,24.89
2022-08-12T19:10:32.980Z,24.80
2022-08-12T19:13:23.129Z,24.89
2022-08-12T19:15:54.178Z,24.75
2022-08-12T19:18:29.964Z,24.91
2022-08-12T19:21:06.312Z,24.77
2022-08-12T19:23:35.948Z,24.68
2022-08-12T19:26:05.341Z,24.57
2022-08-12T19:28:39.048Z,24.43
2022-08-12T19:31:55.542Z,24.32
2022-08-12T19:35:54.167Z,23.96
2022-08-12T19:37:26.769Z,24.01
2022-08-12T19:40:10.317Z,24.22
2022-08-12T19:42:57.593Z,24.05
2022-08-12T19:45:42.294Z,23.85
2022-08-12T19:48:18.316Z,23.78
2022-08-12T19:50:50.587Z,23.67
2022-08-12T19:53:23.878Z,23.45
2022-08-12T19:55:54.870Z,23.24
2022-08-12T19:58:25.540Z,23.17
2022-08-12T20:00:55.856Z,22.93
2022-08-12T20:03:38.997Z,22.76
2022-08-12T20:06:15.864Z,22.53
2022-08-12T20:08:56.681Z,22.72
2022-08-12T20:12:15.177Z,22.85
2022-08-12T20:14:19.248Z,22.97
2022-08-12T20:16:52.717Z,22.51
2022-08-12T20:19:24.608Z,22.67
2022-08-12T20:22:14.426Z,22.50
2022-08-12T20:24:46.326Z,22.34
2022-08-12T20:27:29.411Z,22.32
2022-08-12T20:30:07.105Z,21.97
2022-08-12T20:32:47.623Z,21.64
2022-08-12T20:35:24.270Z,21.35
2022-08-12T20:38:06.517Z,21.20
2022-08-12T20:40:42.207Z,20.92
2022-08-12T20:43:19.038Z,20.94
2022-08-12T20:45:57.538Z,20.94
2022-08-12T20:48:29.312Z,20.88
2022-08-12T20:51:04.712Z,20.73
2022-08-12T20:53:58.125Z,20.67
2022-08-12T20:56:30.186Z,20.65
2022-08-12T20:59:01.233Z,20.40
2022-08-12T21:01:46.750Z,20.44
2022-08-12T21:04:35.711Z,20.37
2022-08-12T21:07:09.563Z,20.35
2022-08-12T21:09:41.903Z,20.18
2022-08-12T21:12:28.677Z,20.15
2022-08-12T21:15:23.807Z,20.08
2022-08-12T21:18:10.532Z,19.92
2022-08-12T21:20:49.054Z,19.94
2022-08-12T21:23:19.058Z,19.90
2022-08-12T21:25:48.174Z,19.70
2022-08-12T21:28:18.953Z,19.84
2022-08-12T21:31:11.611Z,19.68
2022-08-12T21:33:58.706Z,19.59
2022-08-12T21:36:34.107Z,19.55
2022-08-12T21:39:18.830Z,19.44
2022-08-12T21:41:50.161Z,19.30
2022-08-12T21:44:24.837Z,19.25
2022-08-12T21:47:21.003Z,19.16
2022-08-12T21:50:02.140Z,19.02
2022-08-12T21:52:34.746Z,18.97
2022-08-12T21:55:18.389Z,18.86
2022-08-12T21:57:53.690Z,18.78
2022-08-12T22:00:32.848Z,19.00
2022-08-12T22:04:01.626Z,18.95
2022-08-12T22:06:20.267Z,18.93
2022-08-12T22:09:02.624Z,18.91
2022-08-12T22:11:41.744Z,18.87
2022-08-12T22:14:21.738Z,18.98
2022-08-12T22:16:53.648Z,18.69
2022-08-12T22:19:22.993Z,18.55
2022-08-12T22:21:55.521Z,18.57
2022-08-12T22:24:26.700Z,18.39
2022-08-12T22:26:58.031Z,18.39
2022-08-12T22:29:43.858Z,18.18
2022-08-12T22:32:12.267Z,18.42
2022-08-12T22:34:40.430Z,18.20
2022-08-12T22:37:19.665Z,18.10
2022-08-12T22:39:49.050Z,18.15
2022-08-12T22:42:34.661Z,18.41
2022-08-12T22:45:20.151Z,18.13
2022-08-12T22:47:55.588Z,17.94
2022-08-12T22:50:28.556Z,17.94
2022-08-12T22:53:14.538Z,17.97
2022-08-12T22:56:00.794Z,17.87
2022-08-12T22:58:33.686Z,17.79
2022-08-12T23:01:03.453Z,17.71
2022-08-12T23:03:48.788Z,17.72
2022-08-12T23:06:19.956Z,17.87
2022-08-12T23:08:50.784Z,17.93
2022-08-12T23:11:23.481Z,17.98
2022-08-12T23:13:56.974Z,18.06
2022-08-12T23:16:31.255Z,18.05
2022-08-12T23:19:10.870Z,18.00
2022-08-12T23:22:06.421Z,17.81
2022-08-12T23:24:55.869Z,17.78
2022-08-12T23:27:52.052Z,17.58
2022-08-12T23:30:32.320Z,17.67
2022-08-12T23:33:20.377Z,17.56
2022-08-12T23:36:02.580Z,17.63
2022-08-12T23:38:32.679Z,17.55
2022-08-12T23:41:13.641Z,17.68
2022-08-12T23:43:48.767Z,17.29
2022-08-12T23:46:19.878Z,17.38
2022-08-12T23:48:50.475Z,17.36
2022-08-12T23:51:24.534Z,17.18
2022-08-12T23:53:56.275Z,17.31
2022-08-12T23:56:33.635Z,17.25
2022-08-12T23:59:02.190Z,17.25
